sensor_id;sensor_type;location;lat;lon;timestamp;pressure;altitude;pressure_sealevel;temperature;humidity
20115;BME280;10218;42.874;25.320;2023-05-20T00:00:55;97595.66;;;12.20;100.00
20115;BME280;10218;42.874;25.320;2023-05-20T00:03:23;97604.94;;;11.93;100.00
20115;BME280;10218;42.874;25.320;2023-05-20T00:05:50;97612.94;;;12.09;100.00
20115;BME280;10218;42.874;25.320;2023-05-20T00:08:18;97609.63;;;11.91;100.00
20115;BME280;10218;42.874;25.320;2023-05-20T00:10:45;97616.13;;;11.64;100.00
20115;BME280;10218;42.874;25.320;2023-05-20T00:13:12;97605.94;;;11.84;100.00
20115;BME280;10218;42.874;25.320;2023-05-20T00:15:39;97612.97;;;11.52;100.00
20115;BME280;10218;42.874;25.320;2023-05-20T00:18:08;97607.28;;;11.64;100.00
20115;BME280;10218;42.874;25.320;2023-05-20T00:20:35;97603.78;;;11.79;100.00
20115;BME280;10218;42.874;25.320;2023-05-20T00:23:02;97598.25;;;11.89;100.00
20115;BME280;10218;42.874;25.320;2023-05-20T00:25:29;97598.53;;;12.18;100.00
20115;BME280;10218;42.874;25.320;2023-05-20T00:27:58;97601.50;;;12.31;100.00
20115;BME280;10218;42.874;25.320;2023-05-20T00:30:25;97605.22;;;12.22;100.00
20115;BME280;10218;42.874;25.320;2023-05-20T00:32:52;97597.50;;;12.27;100.00
20115;BME280;10218;42.874;25.320;2023-05-20T00:35:19;97594.84;;;12.19;100.00
20115;BME280;10218;42.874;25.320;2023-05-20T00:37:46;97593.88;;;11.96;100.00
20115;BME280;10218;42.874;25.320;2023-05-20T00:40:14;97587.50;;;12.05;100.00
20115;BME280;10218;42.874;25.320;2023-05-20T00:42:42;97583.63;;;12.16;100.00
20115;BME280;10218;42.874;25.320;2023-05-20T00:45:09;97570.72;;;12.19;100.00
20115;BME280;10218;42.874;25.320;2023-05-20T00:47:38;97587.84;;;12.02;100.00
20115;BME280;10218;42.874;25.320;2023-05-20T00:50:06;97581.03;;;11.83;100.00
20115;BME280;10218;42.874;25.320;2023-05-20T00:52:34;97589.69;;;12.02;100.00
20115;BME280;10218;42.874;25.320;2023-05-20T00:55:02;97589.03;;;11.99;100.00
20115;BME280;10218;42.874;25.320;2023-05-20T00:57:29;97590.88;;;11.91;100.00
20115;BME280;10218;42.874;25.320;2023-05-20T00:59:57;97587.53;;;11.89;100.00
20115;BME280;10218;42.874;25.320;2023-05-20T01:02:25;97589.53;;;11.71;100.00
20115;BME280;10218;42.874;25.320;2023-05-20T01:04:52;97573.81;;;11.59;100.00
20115;BME280;10218;42.874;25.320;2023-05-20T01:07:21;97585.50;;;11.99;100.00
20115;BME280;10218;42.874;25.320;2023-05-20T01:09:48;97581.84;;;11.92;100.00
20115;BME280;10218;42.874;25.320;2023-05-20T01:12:21;97567.13;;;11.96;100.00
20115;BME280;10218;42.874;25.320;2023-05-20T01:14:58;97574.25;;;12.20;100.00
20115;BME280;10218;42.874;25.320;2023-05-20T01:17:29;97576.78;;;12.05;100.00
20115;BME280;10218;42.874;25.320;2023-05-20T01:20:01;97576.28;;;12.18;100.00
20115;BME280;10218;42.874;25.320;2023-05-20T01:22:30;97571.97;;;12.00;100.00
20115;BME280;10218;42.874;25.320;2023-05-20T01:24:57;97573.50;;;11.87;100.00
20115;BME280;10218;42.874;25.320;2023-05-20T01:27:25;97560.81;;;11.73;100.00
20115;BME280;10218;42.874;25.320;2023-05-20T01:29:52;97555.75;;;11.70;100.00
20115;BME280;10218;42.874;25.320;2023-05-20T01:32:22;97550.78;;;11.42;100.00
20115;BME280;10218;42.874;25.320;2023-05-20T01:34:51;97559.47;;;11.36;100.00
20115;BME280;10218;42.874;25.320;2023-05-20T01:37:21;97556.09;;;11.50;100.00
20115;BME280;10218;42.874;25.320;2023-05-20T01:39:49;97561.44;;;11.67;100.00
20115;BME280;10218;42.874;25.320;2023-05-20T01:42:18;97564.66;;;11.78;100.00
20115;BME280;10218;42.874;25.320;2023-05-20T01:44:46;97567.13;;;11.72;100.00
20115;BME280;10218;42.874;25.320;2023-05-20T01:47:13;97551.72;;;11.98;100.00
20115;BME280;10218;42.874;25.320;2023-05-20T01:49:41;97541.69;;;11.84;100.00
20115;BME280;10218;42.874;25.320;2023-05-20T01:52:08;97551.69;;;12.06;100.00
20115;BME280;10218;42.874;25.320;2023-05-20T01:54:36;97552.09;;;11.79;100.00
20115;BME280;10218;42.874;25.320;2023-05-20T01:57:03;97553.41;;;11.91;100.00
20115;BME280;10218;42.874;25.320;2023-05-20T01:59:30;97548.06;;;11.91;100.00
20115;BME280;10218;42.874;25.320;2023-05-20T02:01:58;97569.91;;;12.11;100.00
20115;BME280;10218;42.874;25.320;2023-05-20T02:04:26;97562.75;;;11.95;100.00
20115;BME280;10218;42.874;25.320;2023-05-20T02:06:53;97562.41;;;12.06;100.00
20115;BME280;10218;42.874;25.320;2023-05-20T02:09:22;97559.59;;;11.91;100.00
20115;BME280;10218;42.874;25.320;2023-05-20T02:11:51;97564.47;;;11.72;100.00
20115;BME280;10218;42.874;25.320;2023-05-20T02:14:18;97557.59;;;11.61;100.00
20115;BME280;10218;42.874;25.320;2023-05-20T02:16:45;97557.78;;;11.68;100.00
20115;BME280;10218;42.874;25.320;2023-05-20T02:19:13;97543.72;;;11.49;100.00
20115;BME280;10218;42.874;25.320;2023-05-20T02:21:45;97549.09;;;11.49;100.00
20115;BME280;10218;42.874;25.320;2023-05-20T02:24:15;97558.75;;;11.58;100.00
20115;BME280;10218;42.874;25.320;2023-05-20T02:26:45;97559.78;;;11.82;100.00
20115;BME280;10218;42.874;25.320;2023-05-20T02:29:12;97550.75;;;11.67;100.00
20115;BME280;10218;42.874;25.320;2023-05-20T02:31:39;97555.47;;;11.73;100.00
20115;BME280;10218;42.874;25.320;2023-05-20T02:34:07;97558.94;;;11.81;100.00
20115;BME280;10218;42.874;25.320;2023-05-20T02:36:34;97559.94;;;11.72;100.00
20115;BME280;10218;42.874;25.320;2023-05-20T02:39:02;97561.97;;;11.62;100.00
20115;BME280;10218;42.874;25.320;2023-05-20T02:41:29;97559.78;;;11.66;100.00
20115;BME280;10218;42.874;25.320;2023-05-20T02:43:57;97556.78;;;11.52;100.00
20115;BME280;10218;42.874;25.320;2023-05-20T02:46:27;97557.47;;;11.46;100.00
20115;BME280;10218;42.874;25.320;2023-05-20T02:48:54;97551.41;;;11.44;100.00
20115;BME280;10218;42.874;25.320;2023-05-20T02:51:22;97561.28;;;11.28;100.00
20115;BME280;10218;42.874;25.320;2023-05-20T02:53:49;97566.81;;;11.42;100.00
20115;BME280;10218;42.874;25.320;2023-05-20T02:56:17;97558.94;;;11.33;100.00
20115;BME280;10218;42.874;25.320;2023-05-20T02:58:47;97560.63;;;11.42;100.00
20115;BME280;10218;42.874;25.320;2023-05-20T03:01:14;97548.44;;;11.47;100.00
20115;BME280;10218;42.874;25.320;2023-05-20T03:03:41;97548.06;;;11.58;100.00
20115;BME280;10218;42.874;25.320;2023-05-20T03:06:09;97553.09;;;11.45;100.00
20115;BME280;10218;42.874;25.320;2023-05-20T03:08:37;97558.09;;;11.65;100.00
20115;BME280;10218;42.874;25.320;2023-05-20T03:11:05;97562.47;;;11.74;100.00
20115;BME280;10218;42.874;25.320;2023-05-20T03:13:33;97557.75;;;11.84;100.00
20115;BME280;10218;42.874;25.320;2023-05-20T03:16:00;97554.59;;;11.72;100.00
20115;BME280;10218;42.874;25.320;2023-05-20T03:18:27;97554.59;;;11.80;100.00
20115;BME280;10218;42.874;25.320;2023-05-20T03:20:55;97550.41;;;11.70;100.00
20115;BME280;10218;42.874;25.320;2023-05-20T03:23:22;97562.47;;;11.25;100.00
20115;BME280;10218;42.874;25.320;2023-05-20T03:25:49;97560.47;;;11.51;100.00
20115;BME280;10218;42.874;25.320;2023-05-20T03:28:17;97549.75;;;11.59;100.00
20115;BME280;10218;42.874;25.320;2023-05-20T03:30:44;97552.44;;;11.35;100.00
20115;BME280;10218;42.874;25.320;2023-05-20T03:33:11;97554.78;;;11.46;100.00
20115;BME280;10218;42.874;25.320;2023-05-20T03:35:39;97553.75;;;11.55;100.00
20115;BME280;10218;42.874;25.320;2023-05-20T03:38:07;97554.59;;;11.56;100.00
20115;BME280;10218;42.874;25.320;2023-05-20T03:40:34;97557.78;;;11.51;100.00
20115;BME280;10218;42.874;25.320;2023-05-20T03:43:02;97572.66;;;11.54;100.00
20115;BME280;10218;42.874;25.320;2023-05-20T03:45:30;97573.97;;;11.58;100.00
20115;BME280;10218;42.874;25.320;2023-05-20T03:47:57;97579.03;;;11.77;100.00
20115;BME280;10218;42.874;25.320;2023-05-20T03:50:25;97579.19;;;11.76;100.00
20115;BME280;10218;42.874;25.320;2023-05-20T03:52:52;97587.19;;;11.43;100.00
20115;BME280;10218;42.874;25.320;2023-05-20T03:55:19;97594.59;;;11.57;100.00
20115;BME280;10218;42.874;25.320;2023-05-20T03:57:47;97590.72;;;11.84;100.00
20115;BME280;10218;42.874;25.320;2023-05-20T04:00:14;97588.41;;;11.73;100.00
20115;BME280;10218;42.874;25.320;2023-05-20T04:02:42;97595.53;;;12.05;100.00
20115;BME280;10218;42.874;25.320;2023-05-20T04:05:11;97590.69;;;12.00;100.00
20115;BME280;10218;42.874;25.320;2023-05-20T04:07:38;97589.78;;;12.24;100.00
20115;BME280;10218;42.874;25.320;2023-05-20T04:10:06;97585.81;;;12.04;100.00
20115;BME280;10218;42.874;25.320;2023-05-20T04:12:33;97585.16;;;12.10;100.00
20115;BME280;10218;42.874;25.320;2023-05-20T04:15:03;97581.19;;;11.49;100.00
20115;BME280;10218;42.874;25.320;2023-05-20T04:17:31;97578.69;;;11.80;100.00
20115;BME280;10218;42.874;25.320;2023-05-20T04:19:58;97580.88;;;11.52;100.00
20115;BME280;10218;42.874;25.320;2023-05-20T04:22:26;97587.59;;;11.73;100.00
20115;BME280;10218;42.874;25.320;2023-05-20T04:24:53;97587.69;;;11.95;100.00
20115;BME280;10218;42.874;25.320;2023-05-20T04:27:20;97571.44;;;12.13;100.00
20115;BME280;10218;42.874;25.320;2023-05-20T04:29:48;97577.25;;;12.25;100.00
20115;BME280;10218;42.874;25.320;2023-05-20T04:32:17;97572.81;;;12.48;100.00
20115;BME280;10218;42.874;25.320;2023-05-20T04:34:46;97579.50;;;12.52;100.00
20115;BME280;10218;42.874;25.320;2023-05-20T04:37:13;97578.44;;;12.61;100.00
20115;BME280;10218;42.874;25.320;2023-05-20T04:39:41;97575.75;;;12.69;100.00
20115;BME280;10218;42.874;25.320;2023-05-20T04:42:11;97577.28;;;12.64;100.00
20115;BME280;10218;42.874;25.320;2023-05-20T04:44:39;97578.81;;;13.20;100.00
20115;BME280;10218;42.874;25.320;2023-05-20T04:47:07;97570.16;;;13.02;100.00
20115;BME280;10218;42.874;25.320;2023-05-20T04:49:35;97576.41;;;13.48;100.00
20115;BME280;10218;42.874;25.320;2023-05-20T04:52:02;97583.03;;;12.83;100.00
20115;BME280;10218;42.874;25.320;2023-05-20T04:54:31;97568.78;;;13.37;100.00
20115;BME280;10218;42.874;25.320;2023-05-20T04:56:59;97571.25;;;12.93;100.00
20115;BME280;10218;42.874;25.320;2023-05-20T04:59:26;97573.31;;;13.13;100.00
20115;BME280;10218;42.874;25.320;2023-05-20T05:01:53;97571.03;;;13.48;100.00
20115;BME280;10218;42.874;25.320;2023-05-20T05:04:21;97578.81;;;13.43;100.00
20115;BME280;10218;42.874;25.320;2023-05-20T05:06:49;97580.31;;;13.45;100.00
20115;BME280;10218;42.874;25.320;2023-05-20T05:09:16;97570.91;;;13.64;100.00
20115;BME280;10218;42.874;25.320;2023-05-20T05:11:44;97574.91;;;13.83;100.00
20115;BME280;10218;42.874;25.320;2023-05-20T05:14:11;97561.91;;;14.24;100.00
20115;BME280;10218;42.874;25.320;2023-05-20T05:16:38;97570.22;;;13.99;100.00
20115;BME280;10218;42.874;25.320;2023-05-20T05:19:06;97576.19;;;14.68;100.00
20115;BME280;10218;42.874;25.320;2023-05-20T05:21:35;97573.50;;;14.83;100.00
20115;BME280;10218;42.874;25.320;2023-05-20T05:24:02;97569.16;;;14.67;100.00
20115;BME280;10218;42.874;25.320;2023-05-20T05:26:30;97570.72;;;14.76;100.00
20115;BME280;10218;42.874;25.320;2023-05-20T05:28:57;97571.41;;;15.21;100.00
20115;BME280;10218;42.874;25.320;2023-05-20T05:31:24;97573.41;;;14.76;100.00
20115;BME280;10218;42.874;25.320;2023-05-20T05:33:52;97570.66;;;15.27;100.00
20115;BME280;10218;42.874;25.320;2023-05-20T05:36:19;97560.09;;;15.96;100.00
20115;BME280;10218;42.874;25.320;2023-05-20T05:38:46;97564.00;;;16.21;100.00
20115;BME280;10218;42.874;25.320;2023-05-20T05:41:13;97554.50;;;16.25;100.00
20115;BME280;10218;42.874;25.320;2023-05-20T05:43:41;97558.69;;;16.00;100.00
20115;BME280;10218;42.874;25.320;2023-05-20T05:46:08;97555.28;;;16.53;100.00
20115;BME280;10218;42.874;25.320;2023-05-20T05:48:36;97543.91;;;15.89;100.00
20115;BME280;10218;42.874;25.320;2023-05-20T05:51:03;97555.75;;;15.95;100.00
20115;BME280;10218;42.874;25.320;2023-05-20T05:53:32;97541.22;;;16.23;100.00
20115;BME280;10218;42.874;25.320;2023-05-20T05:55:59;97538.41;;;16.04;100.00
20115;BME280;10218;42.874;25.320;2023-05-20T05:58:26;97538.41;;;16.79;100.00
20115;BME280;10218;42.874;25.320;2023-05-20T06:00:54;97535.50;;;16.87;100.00
20115;BME280;10218;42.874;25.320;2023-05-20T06:03:22;97542.94;;;16.65;100.00
20115;BME280;10218;42.874;25.320;2023-05-20T06:05:49;97547.37;;;16.86;100.00
20115;BME280;10218;42.874;25.320;2023-05-20T06:08:19;97538.94;;;17.29;100.00
20115;BME280;10218;42.874;25.320;2023-05-20T06:10:50;97528.34;;;18.32;100.00
20115;BME280;10218;42.874;25.320;2023-05-20T06:13:17;97526.13;;;17.57;100.00
20115;BME280;10218;42.874;25.320;2023-05-20T06:15:45;97533.19;;;17.91;100.00
20115;BME280;10218;42.874;25.320;2023-05-20T06:18:12;97544.38;;;17.55;100.00
20115;BME280;10218;42.874;25.320;2023-05-20T06:20:40;97543.16;;;17.51;100.00
20115;BME280;10218;42.874;25.320;2023-05-20T06:23:07;97540.84;;;17.54;100.00
20115;BME280;10218;42.874;25.320;2023-05-20T06:25:35;97538.81;;;17.76;100.00
20115;BME280;10218;42.874;25.320;2023-05-20T06:28:02;97552.66;;;18.46;100.00
20115;BME280;10218;42.874;25.320;2023-05-20T06:30:29;97538.94;;;17.29;100.00
20115;BME280;10218;42.874;25.320;2023-05-20T06:32:57;97551.25;;;18.23;100.00
20115;BME280;10218;42.874;25.320;2023-05-20T06:35:24;97552.94;;;17.85;100.00
20115;BME280;10218;42.874;25.320;2023-05-20T06:37:51;97557.47;;;17.45;100.00
20115;BME280;10218;42.874;25.320;2023-05-20T06:40:22;97549.59;;;17.83;100.00
20115;BME280;10218;42.874;25.320;2023-05-20T06:42:50;97551.88;;;18.25;100.00
20115;BME280;10218;42.874;25.320;2023-05-20T06:45:19;97551.09;;;17.92;100.00
20115;BME280;10218;42.874;25.320;2023-05-20T06:47:48;97550.09;;;18.77;100.00
20115;BME280;10218;42.874;25.320;2023-05-20T06:50:15;97551.56;;;19.55;100.00
20115;BME280;10218;42.874;25.320;2023-05-20T06:52:43;97556.72;;;18.81;100.00
20115;BME280;10218;42.874;25.320;2023-05-20T06:55:10;97554.06;;;18.68;100.00
20115;BME280;10218;42.874;25.320;2023-05-20T06:57:38;97562.28;;;18.15;100.00
20115;BME280;10218;42.874;25.320;2023-05-20T07:00:06;97558.34;;;17.98;100.00
20115;BME280;10218;42.874;25.320;2023-05-20T07:02:36;97544.13;;;18.49;100.00
20115;BME280;10218;42.874;25.320;2023-05-20T07:05:03;97544.44;;;19.23;100.00
20115;BME280;10218;42.874;25.320;2023-05-20T07:07:31;97536.09;;;20.30;100.00
20115;BME280;10218;42.874;25.320;2023-05-20T07:09:58;97532.44;;;20.00;100.00
20115;BME280;10218;42.874;25.320;2023-05-20T07:12:25;97537.72;;;19.32;100.00
20115;BME280;10218;42.874;25.320;2023-05-20T07:14:53;97546.50;;;19.28;100.00
20115;BME280;10218;42.874;25.320;2023-05-20T07:17:20;97540.44;;;19.88;100.00
20115;BME280;10218;42.874;25.320;2023-05-20T07:19:47;97544.59;;;20.16;100.00
20115;BME280;10218;42.874;25.320;2023-05-20T07:22:14;97549.75;;;19.74;100.00
20115;BME280;10218;42.874;25.320;2023-05-20T07:24:44;97549.34;;;19.01;100.00
20115;BME280;10218;42.874;25.320;2023-05-20T07:27:11;97550.00;;;19.66;100.00
20115;BME280;10218;42.874;25.320;2023-05-20T07:29:39;97554.91;;;18.68;100.00
20115;BME280;10218;42.874;25.320;2023-05-20T07:32:07;97548.94;;;19.04;100.00
20115;BME280;10218;42.874;25.320;2023-05-20T07:34:36;97558.81;;;19.23;100.00
20115;BME280;10218;42.874;25.320;2023-05-20T07:37:03;97576.69;;;19.69;100.00
20115;BME280;10218;42.874;25.320;2023-05-20T07:39:32;97562.75;;;19.28;100.00
20115;BME280;10218;42.874;25.320;2023-05-20T07:41:59;97563.63;;;20.09;100.00
20115;BME280;10218;42.874;25.320;2023-05-20T07:44:26;97567.69;;;19.75;100.00
20115;BME280;10218;42.874;25.320;2023-05-20T07:46:54;97571.56;;;19.16;100.00
20115;BME280;10218;42.874;25.320;2023-05-20T07:49:21;97561.75;;;19.15;100.00
20115;BME280;10218;42.874;25.320;2023-05-20T07:51:48;97564.97;;;19.37;100.00
20115;BME280;10218;42.874;25.320;2023-05-20T07:54:16;97567.00;;;19.10;100.00
20115;BME280;10218;42.874;25.320;2023-05-20T07:56:43;97555.25;;;19.61;100.00
20115;BME280;10218;42.874;25.320;2023-05-20T07:59:11;97559.22;;;19.20;100.00
20115;BME280;10218;42.874;25.320;2023-05-20T08:01:40;97554.47;;;18.78;100.00
20115;BME280;10218;42.874;25.320;2023-05-20T08:04:09;97553.66;;;18.64;100.00
20115;BME280;10218;42.874;25.320;2023-05-20T08:06:37;97545.00;;;19.32;100.00
20115;BME280;10218;42.874;25.320;2023-05-20T08:09:05;97545.00;;;20.37;100.00
20115;BME280;10218;42.874;25.320;2023-05-20T08:11:34;97545.09;;;20.67;100.00
20115;BME280;10218;42.874;25.320;2023-05-20T08:14:01;97537.16;;;22.38;100.00
20115;BME280;10218;42.874;25.320;2023-05-20T08:16:29;97539.16;;;22.20;100.00
20115;BME280;10218;42.874;25.320;2023-05-20T08:18:57;97534.53;;;22.43;100.00
20115;BME280;10218;42.874;25.320;2023-05-20T08:21:24;97536.94;;;20.85;100.00
20115;BME280;10218;42.874;25.320;2023-05-20T08:23:51;97531.22;;;20.39;100.00
20115;BME280;10218;42.874;25.320;2023-05-20T08:26:19;97546.50;;;20.88;100.00
20115;BME280;10218;42.874;25.320;2023-05-20T08:28:46;97544.75;;;21.30;100.00
20115;BME280;10218;42.874;25.320;2023-05-20T08:31:14;97530.41;;;21.64;100.00
20115;BME280;10218;42.874;25.320;2023-05-20T08:33:44;97539.37;;;21.23;100.00
20115;BME280;10218;42.874;25.320;2023-05-20T08:36:11;97535.00;;;22.17;100.00
20115;BME280;10218;42.874;25.320;2023-05-20T08:38:38;97538.81;;;20.30;100.00
20115;BME280;10218;42.874;25.320;2023-05-20T08:41:06;97538.16;;;20.53;100.00
20115;BME280;10218;42.874;25.320;2023-05-20T08:43:33;97534.09;;;20.44;100.00
20115;BME280;10218;42.874;25.320;2023-05-20T08:46:04;97538.94;;;19.68;100.00
20115;BME280;10218;42.874;25.320;2023-05-20T08:48:34;97537.63;;;19.77;100.00
20115;BME280;10218;42.874;25.320;2023-05-20T08:51:02;97537.88;;;20.18;100.00
20115;BME280;10218;42.874;25.320;2023-05-20T08:53:30;97535.56;;;19.72;100.00
20115;BME280;10218;42.874;25.320;2023-05-20T08:56:00;97536.12;;;20.05;100.00
20115;BME280;10218;42.874;25.320;2023-05-20T08:58:29;97525.63;;;20.88;100.00
20115;BME280;10218;42.874;25.320;2023-05-20T09:00:57;97538.94;;;19.68;100.00
20115;BME280;10218;42.874;25.320;2023-05-20T09:03:25;97535.31;;;19.80;100.00
20115;BME280;10218;42.874;25.320;2023-05-20T09:05:52;97532.88;;;20.58;100.00
20115;BME280;10218;42.874;25.320;2023-05-20T09:08:24;97540.97;;;19.47;100.00
20115;BME280;10218;42.874;25.320;2023-05-20T09:10:54;97540.03;;;19.29;100.00
20115;BME280;10218;42.874;25.320;2023-05-20T09:13:22;97535.16;;;20.61;100.00
20115;BME280;10218;42.874;25.320;2023-05-20T09:15:50;97532.06;;;20.15;100.00
20115;BME280;10218;42.874;25.320;2023-05-20T09:18:17;97539.16;;;20.16;100.00
20115;BME280;10218;42.874;25.320;2023-05-20T09:20:49;97533.81;;;20.27;100.00
20115;BME280;10218;42.874;25.320;2023-05-20T09:23:18;97539.91;;;19.80;100.00
20115;BME280;10218;42.874;25.320;2023-05-20T09:25:48;97548.63;;;19.57;100.00
20115;BME280;10218;42.874;25.320;2023-05-20T09:28:15;97538.75;;;20.37;100.00
20115;BME280;10218;42.874;25.320;2023-05-20T09:30:43;97540.44;;;19.88;100.00
20115;BME280;10218;42.874;25.320;2023-05-20T09:33:11;97539.66;;;19.81;100.00
20115;BME280;10218;42.874;25.320;2023-05-20T09:35:40;97531.97;;;20.03;100.00
20115;BME280;10218;42.874;25.320;2023-05-20T09:38:08;97533.59;;;19.86;100.00
20115;BME280;10218;42.874;25.320;2023-05-20T09:40:37;97526.84;;;19.70;100.00
20115;BME280;10218;42.874;25.320;2023-05-20T09:43:06;97534.81;;;19.65;100.00
20115;BME280;10218;42.874;25.320;2023-05-20T09:45:34;97520.38;;;19.96;100.00
20115;BME280;10218;42.874;25.320;2023-05-20T09:48:03;97521.50;;;19.57;100.00
20115;BME280;10218;42.874;25.320;2023-05-20T09:50:31;97510.75;;;19.44;100.00
20115;BME280;10218;42.874;25.320;2023-05-20T09:53:01;97506.84;;;20.14;100.00
20115;BME280;10218;42.874;25.320;2023-05-20T09:55:29;97504.59;;;20.84;100.00
20115;BME280;10218;42.874;25.320;2023-05-20T09:57:58;97507.59;;;20.94;100.00
20115;BME280;10218;42.874;25.320;2023-05-20T10:00:28;97497.31;;;20.66;100.00
20115;BME280;10218;42.874;25.320;2023-05-20T10:02:56;97506.03;;;19.64;100.00
20115;BME280;10218;42.874;25.320;2023-05-20T10:05:27;97510.34;;;19.47;100.00
20115;BME280;10218;42.874;25.320;2023-05-20T10:10:57;97497.75;;;20.63;100.00
20115;BME280;10218;42.874;25.320;2023-05-20T10:19:29;97490.06;;;19.81;100.00
20115;BME280;10218;42.874;25.320;2023-05-20T10:22:07;97497.31;;;20.48;100.00
20115;BME280;10218;42.874;25.320;2023-05-20T10:24:40;97488.94;;;20.31;100.00
20115;BME280;10218;42.874;25.320;2023-05-20T10:27:09;97482.34;;;20.21;100.00
20115;BME280;10218;42.874;25.320;2023-05-20T10:32:30;97480.06;;;20.18;100.00
20115;BME280;10218;42.874;25.320;2023-05-20T10:35:03;97478.97;;;20.25;100.00
20115;BME280;10218;42.874;25.320;2023-05-20T10:37:41;97481.81;;;20.85;100.00
20115;BME280;10218;42.874;25.320;2023-05-20T10:42:38;97479.16;;;20.97;100.00
20115;BME280;10218;42.874;25.320;2023-05-20T10:45:06;97474.22;;;20.57;100.00
20115;BME280;10218;42.874;25.320;2023-05-20T10:47:34;97474.59;;;20.42;100.00
20115;BME280;10218;42.874;25.320;2023-05-20T10:50:02;97470.06;;;20.18;100.00
20115;BME280;10218;42.874;25.320;2023-05-20T10:52:33;97468.06;;;21.28;100.00
20115;BME280;10218;42.874;25.320;2023-05-20T10:55:01;97463.59;;;20.37;100.00
20115;BME280;10218;42.874;25.320;2023-05-20T10:57:29;97452.75;;;21.92;96.00
20115;BME280;10218;42.874;25.320;2023-05-20T10:59:57;97447.97;;;20.69;100.00
20115;BME280;10218;42.874;25.320;2023-05-20T11:02:26;97458.22;;;20.67;100.00
20115;BME280;10218;42.874;25.320;2023-05-20T11:04:57;97442.41;;;22.92;86.32
20115;BME280;10218;42.874;25.320;2023-05-20T11:07:30;97447.28;;;23.47;92.76
20115;BME280;10218;42.874;25.320;2023-05-20T11:09:57;97449.84;;;23.25;85.20
20115;BME280;10218;42.874;25.320;2023-05-20T11:12:25;97448.37;;;22.37;97.95
20115;BME280;10218;42.874;25.320;2023-05-20T11:14:53;97442.84;;;24.12;82.41
20115;BME280;10218;42.874;25.320;2023-05-20T11:17:20;97430.44;;;24.65;75.28
20115;BME280;10218;42.874;25.320;2023-05-20T11:19:48;97432.97;;;24.28;67.00
20115;BME280;10218;42.874;25.320;2023-05-20T11:22:15;97446.16;;;22.62;77.37
20115;BME280;10218;42.874;25.320;2023-05-20T11:24:42;97437.78;;;24.64;66.57
20115;BME280;10218;42.874;25.320;2023-05-20T11:27:09;97432.22;;;24.33;63.15
20115;BME280;10218;42.874;25.320;2023-05-20T11:29:36;97442.16;;;23.67;74.39
20115;BME280;10218;42.874;25.320;2023-05-20T11:32:06;97440.53;;;24.86;60.21
20115;BME280;10218;42.874;25.320;2023-05-20T11:34:35;97435.66;;;24.45;63.12
20115;BME280;10218;42.874;25.320;2023-05-20T11:37:07;97429.75;;;25.87;59.70
20115;BME280;10218;42.874;25.320;2023-05-20T11:39:36;97429.03;;;24.02;71.59
20115;BME280;10218;42.874;25.320;2023-05-20T11:42:03;97429.66;;;26.61;54.89
20115;BME280;10218;42.874;25.320;2023-05-20T11:44:31;97421.72;;;25.75;53.71
20115;BME280;10218;42.874;25.320;2023-05-20T11:47:00;97403.56;;;25.59;55.30
20115;BME280;10218;42.874;25.320;2023-05-20T11:49:28;97413.09;;;27.23;49.96
20115;BME280;10218;42.874;25.320;2023-05-20T11:51:56;97397.19;;;27.05;48.07
20115;BME280;10218;42.874;25.320;2023-05-20T11:54:23;97415.69;;;26.72;50.95
20115;BME280;10218;42.874;25.320;2023-05-20T11:56:53;97411.59;;;24.42;55.88
20115;BME280;10218;42.874;25.320;2023-05-20T11:59:22;97399.59;;;24.43;56.04
20115;BME280;10218;42.874;25.320;2023-05-20T12:01:50;97401.94;;;23.62;57.02
20115;BME280;10218;42.874;25.320;2023-05-20T12:04:17;97396.84;;;23.66;56.00
20115;BME280;10218;42.874;25.320;2023-05-20T12:06:44;97394.09;;;24.64;57.67
20115;BME280;10218;42.874;25.320;2023-05-20T12:09:12;97394.69;;;24.06;57.68
20115;BME280;10218;42.874;25.320;2023-05-20T12:11:40;97390.22;;;24.39;61.69
20115;BME280;10218;42.874;25.320;2023-05-20T12:14:07;97374.06;;;24.59;56.93
20115;BME280;10218;42.874;25.320;2023-05-20T12:16:35;97373.84;;;23.78;60.27
20115;BME280;10218;42.874;25.320;2023-05-20T12:19:03;97373.81;;;24.82;56.19
20115;BME280;10218;42.874;25.320;2023-05-20T12:21:30;97376.12;;;25.54;52.54
20115;BME280;10218;42.874;25.320;2023-05-20T12:23:58;97367.59;;;25.13;53.47
20115;BME280;10218;42.874;25.320;2023-05-20T12:26:27;97364.19;;;26.74;48.63
20115;BME280;10218;42.874;25.320;2023-05-20T12:28:55;97369.09;;;25.63;51.55
20115;BME280;10218;42.874;25.320;2023-05-20T12:31:22;97367.31;;;25.15;53.83
20115;BME280;10218;42.874;25.320;2023-05-20T12:33:49;97363.59;;;24.99;53.09
20115;BME280;10218;42.874;25.320;2023-05-20T12:36:17;97358.34;;;25.25;53.31
20115;BME280;10218;42.874;25.320;2023-05-20T12:38:45;97354.28;;;24.47;53.76
20115;BME280;10218;42.874;25.320;2023-05-20T12:41:12;97358.88;;;24.90;52.58
20115;BME280;10218;42.874;25.320;2023-05-20T12:43:40;97353.50;;;24.73;57.01
20115;BME280;10218;42.874;25.320;2023-05-20T12:46:07;97350.94;;;25.89;50.22
20115;BME280;10218;42.874;25.320;2023-05-20T12:48:34;97342.84;;;24.50;53.79
20115;BME280;10218;42.874;25.320;2023-05-20T12:51:02;97336.03;;;25.70;52.33
20115;BME280;10218;42.874;25.320;2023-05-20T12:53:29;97323.69;;;26.97;50.10
20115;BME280;10218;42.874;25.320;2023-05-20T12:55:57;97330.28;;;27.01;50.25
20115;BME280;10218;42.874;25.320;2023-05-20T12:58:24;97309.97;;;25.25;52.99